Time;durP1;ratioP1;P1;durP2;ratioP2;P2;SDS_P1;SDS_P2;PMS_P1;PMS_P2;Temp;Humidity;BMP_temperature;BMP_pressure;BME280_temperature;BME280_humidity;BME280_pressure;Samples;Min_cycle;Max_cycle;Signal;HPM_P1;HPM_P2
2021/04/23 00:00:41;;;;;;;5.30;2.20;;;9.00;52.60;;;;;;5090221;28;20519;-79
2021/04/23 00:03:27;;;;;;;5.57;1.98;;;8.90;52.60;;;;;;5092348;28;20052;-79
2021/04/23 00:05:58;;;;;;;5.28;2.13;;;8.90;53.80;;;;;;5071230;28;20084;-79
2021/04/23 00:08:25;;;;;;;5.35;2.20;;;8.90;53.60;;;;;;5070785;28;20052;-79
2021/04/23 00:10:53;;;;;;;5.85;2.30;;;8.90;53.80;;;;;;5091852;28;20497;-79
2021/04/23 00:13:21;;;;;;;5.57;2.33;;;8.90;53.60;;;;;;5092043;28;20052;-80
2021/04/23 00:15:49;;;;;;;5.97;2.58;;;8.90;52.80;;;;;;5091036;28;20150;-79
2021/04/23 00:18:16;;;;;;;5.30;2.70;;;8.60;52.50;;;;;;5091485;28;20173;-79
2021/04/23 00:20:43;;;;;;;7.50;2.72;;;8.80;53.40;;;;;;5091748;28;20044;-79
2021/04/23 00:23:12;;;;;;;6.38;2.28;;;8.60;53.70;;;;;;5090554;28;20078;-80
2021/04/23 00:25:40;;;;;;;6.95;2.45;;;8.60;54.00;;;;;;5090828;28;20562;-79
2021/04/23 00:28:12;;;;;;;6.18;2.58;;;8.60;53.80;;;;;;5089062;28;20056;-78
2021/04/23 00:30:42;;;;;;;6.90;2.40;;;8.50;53.10;;;;;;5089454;28;20047;-79
2021/04/23 00:33:10;;;;;;;8.73;2.60;;;8.50;53.40;;;;;;5093941;28;20131;-80
2021/04/23 00:35:41;;;;;;;8.15;2.78;;;8.40;51.90;;;;;;5093860;28;20079;-79
2021/04/23 00:38:13;;;;;;;7.05;2.75;;;8.30;51.30;;;;;;5091409;28;20079;-79
2021/04/23 00:40:48;;;;;;;9.27;3.38;;;8.10;52.40;;;;;;5093528;28;20083;-79
2021/04/23 00:43:17;;;;;;;10.50;3.70;;;8.00;54.10;;;;;;5092767;28;20036;-79
2021/04/23 00:45:44;;;;;;;8.10;3.65;;;7.90;55.20;;;;;;5092160;28;20075;-79
2021/04/23 00:48:12;;;;;;;6.35;3.38;;;7.90;55.90;;;;;;5092513;28;20123;-78
2021/04/23 00:50:44;;;;;;;8.75;3.17;;;7.90;55.90;;;;;;5092463;28;20122;-79
2021/04/23 00:53:17;;;;;;;8.88;3.55;;;7.90;56.10;;;;;;5093064;28;20127;-80
2021/04/23 00:55:44;;;;;;;10.98;3.53;;;7.90;56.20;;;;;;5093371;28;20079;-79
2021/04/23 00:58:14;;;;;;;9.60;3.80;;;7.80;56.10;;;;;;5088507;28;20128;-80
2021/04/23 01:00:45;;;;;;;7.82;3.13;;;7.80;56.80;;;;;;5079301;28;20064;-80
2021/04/23 01:03:12;;;;;;;9.40;3.58;;;7.70;57.30;;;;;;5092281;28;20493;-81
2021/04/23 01:05:40;;;;;;;8.32;3.55;;;7.70;56.60;;;;;;5092334;28;20073;-80
2021/04/23 01:08:08;;;;;;;7.90;3.13;;;7.70;56.70;;;;;;5093154;28;20079;-80
2021/04/23 01:10:37;;;;;;;7.55;3.00;;;7.70;56.70;;;;;;5093223;28;20127;-79
2021/04/23 01:13:05;;;;;;;10.35;3.28;;;7.70;57.50;;;;;;5093495;28;20475;-80
2021/04/23 01:15:32;;;;;;;7.43;3.28;;;7.60;57.50;;;;;;5096066;28;20047;-79
2021/04/23 01:17:59;;;;;;;7.18;2.83;;;7.70;57.30;;;;;;5104595;28;20082;-80
2021/04/23 01:20:26;;;;;;;7.55;3.08;;;7.70;57.80;;;;;;5104717;28;20067;-80
2021/04/23 01:22:54;;;;;;;5.70;2.80;;;7.70;57.60;;;;;;5103122;28;20083;-79
2021/04/23 01:25:23;;;;;;;6.32;2.65;;;7.60;57.40;;;;;;5093630;28;20044;-79
2021/04/23 01:27:50;;;;;;;6.93;2.70;;;7.50;57.80;;;;;;5093121;28;20056;-79
2021/04/23 01:30:22;;;;;;;7.68;2.80;;;7.50;58.60;;;;;;5093175;28;20051;-79
2021/04/23 01:32:49;;;;;;;8.35;2.80;;;7.50;59.20;;;;;;5091669;28;20058;-79
2021/04/23 01:35:22;;;;;;;5.68;2.65;;;7.50;59.20;;;;;;5093243;28;20490;-79
2021/04/23 01:37:49;;;;;;;6.75;2.97;;;7.50;59.40;;;;;;5093182;28;20127;-79
2021/04/23 01:40:18;;;;;;;7.95;2.90;;;7.50;59.50;;;;;;5092243;28;20402;-79
2021/04/23 01:42:45;;;;;;;6.03;2.70;;;7.40;59.80;;;;;;5093206;28;20083;-79
2021/04/23 01:45:15;;;;;;;7.03;3.00;;;7.40;60.30;;;;;;5093390;28;20082;-79
2021/04/23 01:47:41;;;;;;;9.55;2.70;;;7.40;60.20;;;;;;5093165;28;20094;-79
2021/04/23 01:50:14;;;;;;;7.82;2.47;;;7.40;60.80;;;;;;5093418;28;20138;-79
2021/04/23 01:52:41;;;;;;;7.50;2.67;;;7.30;60.70;;;;;;5088730;28;20072;-79
2021/04/23 01:55:10;;;;;;;7.95;3.10;;;7.10;60.80;;;;;;5073008;28;20084;-80
2021/04/23 01:57:38;;;;;;;7.88;3.03;;;7.30;61.00;;;;;;5072905;28;20131;-80
2021/04/23 02:00:14;;;;;;;8.30;2.70;;;7.30;61.10;;;;;;5073076;28;20135;-81
2021/04/23 02:02:40;;;;;;;8.05;2.83;;;7.20;61.60;;;;;;5077325;28;20080;-80
2021/04/23 02:05:09;;;;;;;8.30;3.20;;;7.10;61.60;;;;;;5092944;28;20136;-80
2021/04/23 02:07:36;;;;;;;8.65;2.75;;;7.10;62.30;;;;;;5093151;28;20093;-80
2021/04/23 02:10:09;;;;;;;6.72;2.80;;;7.10;62.70;;;;;;5092771;28;20138;-81
2021/04/23 02:12:37;;;;;;;6.03;2.50;;;7.10;62.60;;;;;;5093056;28;20131;-80
2021/04/23 02:15:07;;;;;;;7.90;3.00;;;7.00;62.70;;;;;;5092844;28;20075;-79
2021/04/23 02:17:34;;;;;;;7.63;2.83;;;7.00;62.90;;;;;;5093016;28;20072;-80
2021/04/23 02:20:01;;;;;;;6.20;2.47;;;7.00;63.10;;;;;;5093229;28;20102;-79
2021/04/23 02:22:27;;;;;;;6.55;2.58;;;7.00;63.00;;;;;;5092969;28;20438;-80
2021/04/23 02:24:54;;;;;;;6.35;2.50;;;7.00;63.50;;;;;;5091744;28;20052;-79
2021/04/23 02:27:21;;;;;;;6.30;2.88;;;6.90;63.70;;;;;;5092317;28;20072;-79
2021/04/23 02:29:48;;;;;;;6.63;3.17;;;6.80;63.40;;;;;;5093124;28;20134;-80
2021/04/23 02:32:15;;;;;;;8.52;3.38;;;6.80;64.00;;;;;;5093109;28;20079;-80
2021/04/23 02:34:41;;;;;;;7.65;2.70;;;6.80;64.30;;;;;;5092777;28;20572;-79
2021/04/23 02:37:08;;;;;;;6.68;2.95;;;6.60;64.20;;;;;;5092793;28;20138;-81
2021/04/23 02:39:35;;;;;;;7.93;2.92;;;6.70;63.90;;;;;;5091768;28;20075;-80
2021/04/23 02:42:01;;;;;;;8.65;3.00;;;6.60;64.10;;;;;;5092932;28;20093;-80
2021/04/23 02:44:28;;;;;;;7.63;2.90;;;6.50;64.30;;;;;;5093247;28;20083;-81
2021/04/23 02:46:56;;;;;;;6.00;2.60;;;6.40;64.90;;;;;;5092778;28;20139;-80
2021/04/23 02:49:23;;;;;;;7.80;2.60;;;6.30;66.00;;;;;;5094992;28;20141;-80
2021/04/23 02:51:50;;;;;;;6.25;2.70;;;6.20;66.40;;;;;;5096106;28;20131;-80
2021/04/23 02:54:20;;;;;;;5.55;2.60;;;6.10;66.70;;;;;;5095974;28;20458;-80
2021/04/23 02:56:48;;;;;;;7.53;3.05;;;6.10;66.80;;;;;;5095963;28;20489;-80
2021/04/23 02:59:14;;;;;;;7.35;2.97;;;5.90;67.10;;;;;;5096305;28;20139;-81
2021/04/23 03:01:44;;;;;;;7.03;2.50;;;5.80;67.40;;;;;;5095789;28;20127;-82
2021/04/23 03:04:12;;;;;;;7.82;2.83;;;5.70;68.00;;;;;;5103243;28;20071;-81
2021/04/23 03:06:39;;;;;;;8.00;2.70;;;5.60;68.70;;;;;;5103048;28;20059;-80
2021/04/23 03:09:07;;;;;;;8.93;3.22;;;5.60;69.20;;;;;;5098705;28;20052;-80
2021/04/23 03:11:37;;;;;;;7.95;2.53;;;5.50;69.10;;;;;;5093470;28;20146;-80
2021/04/23 03:14:04;;;;;;;10.48;3.28;;;5.40;69.60;;;;;;5092336;28;20290;-81
2021/04/23 03:16:32;;;;;;;7.68;3.05;;;5.40;70.70;;;;;;5093742;28;20506;-81
2021/04/23 03:19:00;;;;;;;6.82;2.80;;;5.40;71.00;;;;;;5092176;28;20134;-81
2021/04/23 03:21:30;;;;;;;7.10;2.95;;;5.30;72.00;;;;;;5109542;28;20054;-81
2021/04/23 03:23:57;;;;;;;8.65;3.60;;;5.40;73.00;;;;;;5088398;28;20055;-81
2021/04/23 03:26:25;;;;;;;8.05;2.78;;;5.40;72.30;;;;;;5072768;28;20057;-80
2021/04/23 03:28:53;;;;;;;7.35;2.70;;;5.30;73.90;;;;;;5072956;28;20059;-81
2021/04/23 03:31:21;;;;;;;6.97;2.78;;;5.30;73.80;;;;;;5075284;28;20075;-80
2021/04/23 03:33:49;;;;;;;5.72;2.33;;;5.30;74.00;;;;;;5092559;28;20080;-80
2021/04/23 03:36:16;;;;;;;7.30;3.03;;;5.20;74.30;;;;;;5094011;28;20238;-82
2021/04/23 03:38:47;;;;;;;4.70;2.47;;;5.30;75.10;;;;;;5093948;27;20113;-81
2021/04/23 03:41:18;;;;;;;7.18;2.70;;;5.40;75.90;;;;;;5092056;28;20075;-81
2021/04/23 03:43:45;;;;;;;7.50;2.83;;;5.40;76.30;;;;;;5091987;28;20126;-78
2021/04/23 03:46:13;;;;;;;7.47;3.13;;;5.50;76.10;;;;;;5093201;28;20081;-78
2021/04/23 03:48:42;;;;;;;5.93;2.70;;;5.50;75.80;;;;;;5099809;28;20075;-78
2021/04/23 03:51:10;;;;;;;6.22;2.70;;;5.50;75.20;;;;;;5103509;28;20431;-79
2021/04/23 03:53:37;;;;;;;4.93;2.65;;;5.50;75.60;;;;;;5082390;28;20577;-79
2021/04/23 03:56:07;;;;;;;6.80;2.95;;;5.50;76.50;;;;;;5082969;28;20078;-79
2021/04/23 03:58:35;;;;;;;5.72;2.60;;;5.50;77.00;;;;;;5082942;28;20087;-79
2021/04/23 04:01:25;;;;;;;6.15;2.50;;;5.50;77.00;;;;;;5099372;28;20152;-79
2021/04/23 04:03:54;;;;;;;8.13;2.58;;;5.60;76.80;;;;;;5084835;28;20048;-79
2021/04/23 04:06:20;;;;;;;8.70;3.08;;;5.60;76.60;;;;;;5084319;28;20049;-79
2021/04/23 04:08:48;;;;;;;7.22;3.00;;;5.60;76.70;;;;;;5085200;28;20076;-78
2021/04/23 04:11:16;;;;;;;5.90;2.72;;;5.60;76.90;;;;;;5087004;28;20055;-79
2021/04/23 04:13:42;;;;;;;9.38;3.35;;;5.60;77.00;;;;;;5099593;28;20087;-79
2021/04/23 04:16:09;;;;;;;6.55;3.03;;;5.60;77.50;;;;;;5094738;28;20080;-80
2021/04/23 04:18:35;;;;;;;7.80;3.15;;;5.60;77.20;;;;;;5094775;28;20138;-80
2021/04/23 04:21:02;;;;;;;7.82;3.60;;;5.60;77.80;;;;;;5094231;28;20078;-79
2021/04/23 04:23:29;;;;;;;8.18;3.97;;;5.60;78.40;;;;;;5094226;28;20047;-79
2021/04/23 04:25:59;;;;;;;8.55;3.47;;;5.60;78.60;;;;;;5094599;28;20583;-79
2021/04/23 04:28:29;;;;;;;7.60;3.22;;;5.70;78.50;;;;;;5075711;28;20048;-79
2021/04/23 04:30:56;;;;;;;8.52;3.88;;;5.70;78.50;;;;;;5084829;28;20036;-80
2021/04/23 04:33:23;;;;;;;10.57;5.47;;;5.70;78.00;;;;;;5093000;28;20572;-80
2021/04/23 04:35:50;;;;;;;14.07;6.07;;;5.70;77.60;;;;;;5094468;28;20223;-80
2021/04/23 04:38:18;;;;;;;11.43;5.28;;;5.70;77.50;;;;;;5094142;28;20187;-80
2021/04/23 04:40:48;;;;;;;7.85;4.38;;;5.70;77.90;;;;;;5094294;28;20442;-80
2021/04/23 04:43:16;;;;;;;8.10;3.72;;;5.80;77.20;;;;;;5093091;28;20126;-81
2021/04/23 04:45:45;;;;;;;8.55;3.83;;;5.70;77.20;;;;;;5094507;28;20111;-80
2021/04/23 04:48:12;;;;;;;7.82;3.85;;;5.70;77.70;;;;;;5093891;28;20135;-82
2021/04/23 04:50:46;;;;;;;9.73;4.43;;;5.60;78.10;;;;;;5094116;28;20139;-80
2021/04/23 04:53:13;;;;;;;11.73;6.28;;;5.50;78.50;;;;;;5093019;28;20131;-80
2021/04/23 04:55:45;;;;;;;14.82;9.07;;;5.50;79.00;;;;;;5093785;28;20040;-81
2021/04/23 04:58:16;;;;;;;13.80;6.82;;;5.50;79.50;;;;;;5094163;28;20055;-80
2021/04/23 05:00:44;;;;;;;12.55;6.55;;;5.60;79.40;;;;;;5093885;28;20513;-79
2021/04/23 05:03:12;;;;;;;10.70;5.95;;;5.50;79.50;;;;;;5093781;28;20469;-78
2021/04/23 05:05:40;;;;;;;11.38;5.20;;;5.50;80.30;;;;;;5093782;28;20177;-79
2021/04/23 05:08:07;;;;;;;9.00;5.15;;;5.50;79.70;;;;;;5093818;28;20072;-80
2021/04/23 05:10:34;;;;;;;9.65;5.15;;;5.50;79.80;;;;;;5093244;28;20544;-79
2021/04/23 05:13:01;;;;;;;7.38;4.45;;;5.60;80.40;;;;;;5093194;28;20090;-79
2021/04/23 05:15:28;;;;;;;8.52;5.05;;;5.60;80.60;;;;;;5093625;28;20079;-78
2021/04/23 05:17:56;;;;;;;8.23;4.20;;;5.60;80.50;;;;;;5093514;28;20124;-79
2021/04/23 05:20:24;;;;;;;6.95;3.85;;;5.70;80.20;;;;;;5093507;28;20135;-79
2021/04/23 05:22:51;;;;;;;9.63;4.60;;;5.60;80.80;;;;;;5093675;28;20131;-79
2021/04/23 05:25:21;;;;;;;9.25;4.82;;;5.70;81.10;;;;;;5093845;28;20084;-79
2021/04/23 05:27:48;;;;;;;8.35;4.47;;;5.80;81.10;;;;;;5093518;28;20559;-79
2021/04/23 05:30:20;;;;;;;7.82;3.70;;;5.90;80.40;;;;;;5093117;28;20482;-79
2021/04/23 05:32:48;;;;;;;6.32;4.00;;;5.90;79.50;;;;;;5093100;28;20135;-80
2021/04/23 05:35:19;;;;;;;8.10;4.13;;;5.90;79.50;;;;;;5093152;28;20096;-79
2021/04/23 05:37:47;;;;;;;8.02;4.22;;;5.90;80.10;;;;;;5091526;28;20171;-79
2021/04/23 05:40:20;;;;;;;8.38;4.32;;;5.90;80.50;;;;;;5092770;28;20076;-79
2021/04/23 05:42:47;;;;;;;9.38;4.43;;;6.00;80.10;;;;;;5092055;28;20091;-79
2021/04/23 05:45:15;;;;;;;9.05;3.90;;;6.00;80.30;;;;;;5092973;28;20048;-80
2021/04/23 05:47:42;;;;;;;11.20;4.70;;;6.00;80.50;;;;;;5099572;28;20047;-80
2021/04/23 05:50:11;;;;;;;7.57;4.28;;;6.10;79.90;;;;;;5113626;28;20130;-80
2021/04/23 05:52:40;;;;;;;12.63;3.97;;;6.10;78.60;;;;;;5113535;28;20154;-79
2021/04/23 05:55:09;;;;;;;10.02;3.35;;;6.20;78.20;;;;;;5119619;28;20080;-80
2021/04/23 05:57:35;;;;;;;7.90;3.90;;;6.20;76.90;;;;;;5119183;28;20050;-79
2021/04/23 06:00:04;;;;;;;7.95;3.45;;;6.10;76.90;;;;;;5112319;28;20139;-79
2021/04/23 06:02:31;;;;;;;9.05;3.83;;;6.00;77.00;;;;;;5112156;28;20051;-78
2021/04/23 06:04:57;;;;;;;7.85;3.65;;;6.00;77.90;;;;;;5112352;28;20122;-79
2021/04/23 06:07:24;;;;;;;6.53;3.15;;;6.00;77.30;;;;;;5113330;28;20546;-80
2021/04/23 06:09:51;;;;;;;7.32;3.53;;;6.00;77.60;;;;;;5112056;28;20044;-79
2021/04/23 06:12:18;;;;;;;8.77;3.30;;;6.00;78.00;;;;;;5113082;28;20085;-78
2021/04/23 06:14:45;;;;;;;7.50;3.47;;;6.10;78.30;;;;;;5113136;28;20063;-78
2021/04/23 06:17:11;;;;;;;6.80;3.28;;;6.10;77.50;;;;;;5111763;28;20147;-78
2021/04/23 06:19:38;;;;;;;8.30;3.65;;;6.10;77.60;;;;;;5112740;28;20075;-79
2021/04/23 06:22:07;;;;;;;9.00;3.80;;;6.10;77.60;;;;;;5113242;28;20048;-79
2021/04/23 06:24:34;;;;;;;7.30;3.55;;;6.10;77.30;;;;;;5117044;28;20512;-79
2021/04/23 06:27:06;;;;;;;8.23;3.15;;;6.20;77.50;;;;;;5117177;28;20615;-79
2021/04/23 06:29:33;;;;;;;7.10;2.90;;;6.20;77.60;;;;;;5116254;28;20135;-78
2021/04/23 06:32:02;;;;;;;10.35;3.67;;;6.30;77.40;;;;;;5100010;28;20379;-78
2021/04/23 06:34:29;;;;;;;7.32;3.25;;;6.40;77.30;;;;;;5125871;28;20047;-79
2021/04/23 06:36:56;;;;;;;7.25;3.17;;;6.50;77.20;;;;;;5125732;28;20055;-79
2021/04/23 06:39:23;;;;;;;8.07;3.50;;;6.50;77.60;;;;;;5124549;28;20077;-78
2021/04/23 06:41:49;;;;;;;9.15;3.38;;;6.60;78.30;;;;;;5128956;28;20075;-78
2021/04/23 06:44:17;;;;;;;9.23;3.78;;;6.70;78.00;;;;;;5124656;28;20072;-79
2021/04/23 06:46:44;;;;;;;10.63;3.90;;;6.70;77.90;;;;;;5123186;28;20438;-78
2021/04/23 06:49:12;;;;;;;7.28;3.33;;;6.90;78.20;;;;;;5120136;28;20051;-79
2021/04/23 06:51:40;;;;;;;10.48;3.80;;;7.00;78.20;;;;;;5126629;27;20074;-79
2021/04/23 06:54:08;;;;;;;9.30;3.95;;;7.20;78.10;;;;;;5102205;28;20052;-79
2021/04/23 06:56:35;;;;;;;11.18;4.13;;;7.20;77.60;;;;;;5115509;28;20500;-79
2021/04/23 06:59:05;;;;;;;7.88;3.58;;;7.30;76.70;;;;;;5115332;28;20464;-78
2021/04/23 07:01:32;;;;;;;11.45;3.60;;;7.40;76.80;;;;;;5116829;28;20126;-79
2021/04/23 07:03:59;;;;;;;8.23;3.65;;;7.50;76.50;;;;;;5116514;27;20075;-80
2021/04/23 07:06:25;;;;;;;8.55;3.80;;;7.60;76.70;;;;;;5116729;28;20505;-79
2021/04/23 07:08:52;;;;;;;9.48;4.03;;;7.60;76.20;;;;;;5116438;28;20083;-79
2021/04/23 07:11:19;;;;;;;8.23;3.65;;;7.80;76.60;;;;;;5118954;28;20175;-79
2021/04/23 07:13:46;;;;;;;11.00;3.97;;;7.90;76.40;;;;;;5116481;28;20054;-78
2021/04/23 07:16:12;;;;;;;9.65;3.55;;;7.90;74.60;;;;;;5123752;28;20052;-79
2021/04/23 07:18:40;;;;;;;7.40;3.22;;;8.10;75.50;;;;;;5127106;28;20053;-79
2021/04/23 07:21:06;;;;;;;8.05;3.90;;;8.10;75.30;;;;;;5126610;28;20086;-80
2021/04/23 07:23:33;;;;;;;9.15;3.97;;;8.10;75.00;;;;;;5124390;28;20051;-79
2021/04/23 07:26:00;;;;;;;9.13;4.03;;;8.20;75.10;;;;;;5123359;28;20409;-79
2021/04/23 07:28:27;;;;;;;11.38;4.45;;;8.30;75.10;;;;;;5123657;28;20081;-79
2021/04/23 07:30:56;;;;;;;9.88;4.22;;;8.30;75.10;;;;;;5123987;28;20089;-79
2021/04/23 07:33:28;;;;;;;8.80;4.07;;;8.40;75.30;;;;;;5123688;28;20536;-78
2021/04/23 07:35:56;;;;;;;7.57;3.60;;;8.50;75.30;;;;;;5124870;27;20389;-78
2021/04/23 07:38:23;;;;;;;11.65;3.95;;;8.50;75.20;;;;;;5124564;28;20259;-78
2021/04/23 07:40:49;;;;;;;9.73;3.75;;;8.70;74.50;;;;;;5122918;28;20056;-80
2021/04/23 07:43:16;;;;;;;9.18;4.10;;;8.80;74.50;;;;;;5122387;28;20051;-80
2021/04/23 07:45:48;;;;;;;11.77;4.05;;;8.80;73.80;;;;;;5104101;28;20103;-78
2021/04/23 07:48:15;;;;;;;8.02;3.80;;;9.00;73.70;;;;;;5122985;28;20048;-77
2021/04/23 07:50:44;;;;;;;11.23;4.90;;;9.00;73.30;;;;;;5125167;28;20047;-78
2021/04/23 07:53:12;;;;;;;9.95;3.75;;;9.00;72.90;;;;;;5124384;28;20039;-79
2021/04/23 07:55:39;;;;;;;8.85;3.17;;;9.20;72.30;;;;;;5124544;28;20051;-78
2021/04/23 07:58:06;;;;;;;7.70;3.72;;;9.20;71.20;;;;;;5125207;28;20055;-79
2021/04/23 08:00:33;;;;;;;9.65;3.55;;;9.20;71.00;;;;;;5124246;28;20055;-80
2021/04/23 08:02:59;;;;;;;9.25;3.58;;;9.20;70.50;;;;;;5123917;28;20074;-78
2021/04/23 08:05:28;;;;;;;6.57;3.20;;;9.40;69.60;;;;;;5124040;28;20461;-80
2021/04/23 08:07:55;;;;;;;7.22;3.65;;;9.40;69.00;;;;;;5125690;28;20051;-80
2021/04/23 08:10:23;;;;;;;7.13;3.28;;;9.40;69.40;;;;;;5124823;28;20571;-79
2021/04/23 08:12:52;;;;;;;7.95;3.55;;;9.60;69.00;;;;;;5124806;28;20048;-79
2021/04/23 08:15:20;;;;;;;9.73;3.58;;;9.60;67.70;;;;;;5124765;28;20069;-80
2021/04/23 08:17:47;;;;;;;9.48;3.70;;;9.60;66.30;;;;;;5124746;28;20071;-79
2021/04/23 08:20:15;;;;;;;7.88;3.20;;;9.70;66.10;;;;;;5124750;28;20059;-79
2021/04/23 08:22:42;;;;;;;9.60;3.80;;;9.70;66.20;;;;;;5123644;28;20051;-79
2021/04/23 08:25:11;;;;;;;8.80;3.53;;;9.90;66.00;;;;;;5124537;28;20067;-79
2021/04/23 08:27:39;;;;;;;8.25;3.05;;;9.90;65.60;;;;;;5123601;28;20080;-78
2021/04/23 08:30:08;;;;;;;9.57;3.92;;;10.10;65.00;;;;;;5121961;28;20073;-78
2021/04/23 08:32:36;;;;;;;12.75;3.70;;;10.10;65.00;;;;;;5114589;28;20090;-78
2021/04/23 08:35:04;;;;;;;9.18;3.28;;;10.20;64.60;;;;;;5114548;28;20051;-78
2021/04/23 08:37:31;;;;;;;11.13;3.55;;;10.20;64.30;;;;;;5114797;28;20078;-78
2021/04/23 08:39:58;;;;;;;8.27;3.33;;;10.30;64.60;;;;;;5114690;28;20123;-79
2021/04/23 08:42:25;;;;;;;8.63;3.38;;;10.40;63.40;;;;;;5114442;28;20051;-79
2021/04/23 08:44:52;;;;;;;7.47;3.22;;;10.60;63.00;;;;;;5114395;28;20150;-79
2021/04/23 08:47:20;;;;;;;10.57;4.00;;;10.60;62.10;;;;;;5112603;28;20079;-79
2021/04/23 08:49:47;;;;;;;8.13;3.63;;;10.70;61.00;;;;;;5095668;28;20040;-80
2021/04/23 08:52:14;;;;;;;9.60;3.55;;;10.70;61.30;;;;;;5113079;28;20086;-80
2021/04/23 08:54:41;;;;;;;8.93;4.05;;;10.80;60.90;;;;;;5114218;28;20044;-80
2021/04/23 08:57:08;;;;;;;11.48;4.38;;;10.70;60.90;;;;;;5114539;28;20443;-79
2021/04/23 08:59:35;;;;;;;10.35;4.30;;;10.80;60.90;;;;;;5114373;28;20056;-79
2021/04/23 09:02:05;;;;;;;12.65;4.35;;;11.00;60.50;;;;;;5114262;28;20079;-79
2021/04/23 09:04:32;;;;;;;10.18;3.92;;;11.10;60.40;;;;;;5114236;28;20044;-79
2021/04/23 09:07:04;;;;;;;9.20;4.20;;;11.10;60.10;;;;;;5114572;28;20074;-79
2021/04/23 09:09:36;;;;;;;11.35;4.90;;;11.20;60.80;;;;;;5114379;28;20077;-79
2021/04/23 09:12:21;;;;;;;10.95;4.82;;;11.30;60.00;;;;;;5114765;28;20075;-78
2021/04/23 09:14:48;;;;;;;11.40;4.22;;;11.40;60.00;;;;;;5113944;28;20051;-79
2021/04/23 09:17:20;;;;;;;9.10;3.58;;;11.50;59.50;;;;;;5115140;28;20079;-78
2021/04/23 09:19:48;;;;;;;8.45;3.60;;;11.50;59.30;;;;;;5123687;28;20052;-79
2021/04/23 09:22:24;;;;;;;8.77;4.07;;;11.60;57.90;;;;;;5118433;28;20409;-79
2021/04/23 09:25:00;;;;;;;8.63;3.38;;;11.60;57.90;;;;;;5114125;28;20126;-78
2021/04/23 09:27:31;;;;;;;10.40;3.25;;;11.60;58.20;;;;;;5113856;28;20044;-79
2021/04/23 09:30:01;;;;;;;10.38;3.50;;;11.80;58.50;;;;;;5114049;28;20052;-79
2021/04/23 09:32:33;;;;;;;10.85;3.33;;;11.90;57.30;;;;;;5112936;28;20048;-78
2021/04/23 09:35:01;;;;;;;8.77;2.83;;;11.90;55.90;;;;;;5113874;28;20047;-80
2021/04/23 09:37:30;;;;;;;9.43;3.25;;;11.90;55.50;;;;;;5099373;28;20048;-78
2021/04/23 09:40:10;;;;;;;8.95;3.60;;;12.00;55.00;;;;;;5093070;28;20127;-78
2021/04/23 09:42:46;;;;;;;10.85;3.80;;;12.00;55.10;;;;;;5080287;28;20071;-78
2021/04/23 09:45:14;;;;;;;9.05;3.45;;;12.10;54.90;;;;;;5094689;28;20044;-79
2021/04/23 09:47:41;;;;;;;9.57;3.13;;;12.10;54.80;;;;;;5093920;28;20493;-79
2021/04/23 09:50:10;;;;;;;8.57;3.35;;;12.20;54.50;;;;;;5093942;28;20098;-80
2021/04/23 09:52:51;;;;;;;10.88;3.92;;;12.20;53.70;;;;;;5092610;28;20041;-76
2021/04/23 09:55:19;;;;;;;8.20;3.72;;;12.30;53.90;;;;;;5092350;28;20048;-77
2021/04/23 09:57:53;;;;;;;10.43;3.88;;;12.30;53.10;;;;;;5088669;28;20071;-77
2021/04/23 10:00:24;;;;;;;12.68;4.90;;;12.40;53.00;;;;;;5088410;28;20048;-77
2021/04/23 10:02:55;;;;;;;11.13;4.05;;;12.40;52.30;;;;;;5084392;28;20051;-76
2021/04/23 10:05:31;;;;;;;8.50;3.35;;;12.40;52.30;;;;;;5079811;28;20117;-77
2021/04/23 10:07:58;;;;;;;8.88;3.33;;;12.50;52.50;;;;;;5091960;28;20059;-76
2021/04/23 10:10:27;;;;;;;10.32;4.43;;;12.50;52.30;;;;;;5079616;28;20131;-77
2021/04/23 10:12:58;;;;;;;12.80;3.70;;;12.60;51.70;;;;;;5083819;28;20044;-77
2021/04/23 10:15:28;;;;;;;7.55;3.17;;;12.60;52.20;;;;;;5079575;28;20086;-77
2021/04/23 10:17:58;;;;;;;9.75;3.53;;;12.70;52.10;;;;;;5081182;28;20131;-78
2021/04/23 10:20:26;;;;;;;8.63;3.88;;;12.70;51.50;;;;;;5084838;28;20079;-78
2021/04/23 10:22:54;;;;;;;8.40;3.28;;;12.70;51.50;;;;;;5084762;28;20072;-78
2021/04/23 10:25:32;;;;;;;9.50;3.53;;;12.80;51.70;;;;;;5093074;28;20133;-78
2021/04/23 10:28:01;;;;;;;9.75;4.03;;;12.80;51.30;;;;;;5077874;28;20052;-76
2021/04/23 10:30:30;;;;;;;8.73;3.40;;;12.90;51.10;;;;;;5088574;28;20079;-80
2021/04/23 10:33:01;;;;;;;9.57;3.60;;;12.90;50.90;;;;;;5087710;28;20446;-78
2021/04/23 10:35:30;;;;;;;8.63;3.80;;;13.00;50.40;;;;;;5097797;28;20093;-78
2021/04/23 10:38:03;;;;;;;7.63;3.60;;;13.10;49.40;;;;;;5099774;28;20043;-78
2021/04/23 10:40:31;;;;;;;9.52;2.92;;;13.10;49.30;;;;;;5106032;28;20059;-77
2021/04/23 10:43:00;;;;;;;9.38;3.35;;;13.20;49.00;;;;;;5100810;28;20040;-77
2021/04/23 10:45:38;;;;;;;7.35;3.60;;;13.20;48.60;;;;;;5096932;28;20075;-78
2021/04/23 10:48:27;;;;;;;8.68;3.35;;;13.20;48.50;;;;;;5096969;28;20074;-79
2021/04/23 10:50:57;;;;;;;7.93;3.22;;;13.30;49.30;;;;;;5096128;28;20087;-78
2021/04/23 10:53:43;;;;;;;8.25;2.97;;;13.40;50.40;;;;;;5097064;28;20121;-78
2021/04/23 10:56:22;;;;;;;6.63;2.88;;;13.40;49.40;;;;;;5096970;28;20505;-79
2021/04/23 10:58:49;;;;;;;7.47;3.00;;;13.50;48.40;;;;;;5096734;28;20052;-78
2021/04/23 11:01:35;;;;;;;10.52;4.00;;;13.60;49.90;;;;;;5096128;28;20130;-77
2021/04/23 11:04:16;;;;;;;9.63;3.95;;;13.60;49.20;;;;;;5094881;28;20044;-78
2021/04/23 11:06:45;;;;;;;8.63;3.50;;;13.70;49.20;;;;;;5090096;28;20060;-78
2021/04/23 11:09:23;;;;;;;8.50;3.03;;;13.80;49.40;;;;;;5091756;28;20079;-79
2021/04/23 11:12:20;;;;;;;12.45;3.97;;;13.90;48.00;;;;;;5095919;28;20079;-81
2021/04/23 11:14:47;;;;;;;11.90;3.65;;;14.10;43.70;;;;;;5000941;28;20042;-77
2021/04/23 11:17:31;;;;;;;9.18;3.78;;;14.10;44.30;;;;;;5076841;28;20054;-78
2021/04/23 11:19:59;;;;;;;6.80;3.42;;;14.00;45.90;;;;;;5095235;28;20093;-80
2021/04/23 11:22:28;;;;;;;5.97;3.08;;;14.10;46.50;;;;;;5095380;28;20078;-80
2021/04/23 11:25:13;;;;;;;7.53;3.47;;;14.00;45.50;;;;;;5095846;28;20067;-78
2021/04/23 11:28:09;;;;;;;8.15;3.10;;;14.10;46.50;;;;;;5095491;28;20067;-83
2021/04/23 11:31:01;;;;;;;7.88;3.00;;;14.20;45.90;;;;;;5080756;28;20048;-78
2021/04/23 11:33:54;;;;;;;6.20;2.83;;;14.20;45.70;;;;;;5088840;28;20044;-78
2021/04/23 11:36:31;;;;;;;11.27;4.38;;;14.40;46.00;;;;;;5096304;28;20044;-77
2021/04/23 11:39:03;;;;;;;9.02;4.20;;;14.40;45.70;;;;;;5104298;28;20105;-78
2021/04/23 11:41:30;;;;;;;6.18;3.03;;;14.50;45.70;;;;;;5096845;28;20444;-77
2021/04/23 11:43:56;;;;;;;8.40;3.00;;;14.50;44.00;;;;;;5094797;28;20064;-78
2021/04/23 11:46:50;;;;;;;8.45;3.20;;;14.70;44.60;;;;;;5095850;28;20110;-79
2021/04/23 11:49:17;;;;;;;7.95;3.13;;;14.70;43.00;;;;;;5095676;28;20086;-78
2021/04/23 11:51:53;;;;;;;7.95;3.03;;;14.80;42.20;;;;;;5095017;28;20085;-77
2021/04/23 11:54:38;;;;;;;7.43;3.15;;;14.90;40.70;;;;;;5095234;28;20044;-80
2021/04/23 11:57:08;;;;;;;8.13;3.05;;;14.90;40.50;;;;;;5095079;28;20414;-79
2021/04/23 11:59:36;;;;;;;9.15;4.07;;;14.90;40.60;;;;;;5095214;28;20048;-79
2021/04/23 12:02:03;;;;;;;7.45;3.33;;;15.10;40.80;;;;;;5095207;28;20231;-78
2021/04/23 12:04:45;;;;;;;8.38;3.03;;;15.10;41.20;;;;;;5095145;28;20055;-79
2021/04/23 12:07:14;;;;;;;7.30;2.70;;;15.20;39.90;;;;;;5094296;28;20044;-78
2021/04/23 12:09:41;;;;;;;8.02;3.00;;;15.30;39.50;;;;;;5094612;28;20098;-77
2021/04/23 12:12:12;;;;;;;9.18;2.90;;;15.40;39.90;;;;;;5095042;28;20488;-78
2021/04/23 12:14:47;;;;;;;9.27;2.60;;;15.50;40.40;;;;;;5094785;28;20048;-79
2021/04/23 12:17:15;;;;;;;7.45;3.10;;;15.70;39.80;;;;;;5094310;28;20520;-79
2021/04/23 12:19:44;;;;;;;6.32;2.67;;;15.80;39.40;;;;;;5094642;28;20044;-79
2021/04/23 12:22:12;;;;;;;6.50;2.60;;;16.00;37.30;;;;;;5093419;28;20044;-78
2021/04/23 12:24:38;;;;;;;7.03;2.75;;;16.00;36.90;;;;;;5094233;28;20052;-78
2021/04/23 12:27:10;;;;;;;5.63;2.35;;;16.20;36.50;;;;;;5094400;28;20079;-78
2021/04/23 12:29:37;;;;;;;6.35;2.45;;;16.20;36.80;;;;;;5094296;28;20492;-79
2021/04/23 12:32:04;;;;;;;6.93;2.45;;;16.40;36.80;;;;;;5094238;28;20505;-77
2021/04/23 12:34:31;;;;;;;6.63;2.60;;;16.50;36.10;;;;;;5093747;28;20048;-78
2021/04/23 12:36:58;;;;;;;5.32;2.25;;;16.60;35.50;;;;;;5094274;28;20052;-79
2021/04/23 12:39:27;;;;;;;5.75;2.58;;;16.70;35.40;;;;;;5094144;28;20494;-79
2021/04/23 12:41:59;;;;;;;6.63;2.50;;;16.90;35.00;;;;;;5094426;28;20497;-80
2021/04/23 12:44:28;;;;;;;6.30;2.40;;;17.10;35.80;;;;;;5094514;28;20048;-78
2021/04/23 12:46:58;;;;;;;8.25;3.10;;;17.20;35.60;;;;;;5093624;28;20094;-80
2021/04/23 12:49:27;;;;;;;5.90;2.47;;;17.40;36.40;;;;;;5093987;28;20059;-80
2021/04/23 12:51:57;;;;;;;8.65;2.97;;;17.50;36.70;;;;;;5093911;28;20163;-78
2021/04/23 12:54:35;;;;;;;8.32;2.70;;;17.70;36.20;;;;;;5093145;28;20052;-80
2021/04/23 12:57:05;;;;;;;5.25;2.50;;;17.80;35.50;;;;;;5094110;28;20127;-80
2021/04/23 12:59:41;;;;;;;6.82;2.47;;;18.00;35.20;;;;;;5094207;28;20105;-80
2021/04/23 13:02:12;;;;;;;7.90;2.60;;;18.20;34.70;;;;;;5094130;28;20490;-78
2021/04/23 13:04:39;;;;;;;5.55;2.88;;;18.30;34.20;;;;;;5094315;28;20424;-79